Terminal Aerodrome Forecast
Issued by NWS Duluth, MN

Home | Current Version | Previous Version | Text Only | Print | Product List | Glossary On
Versions: 1 2 3 4 5 6 7 8 9 10 11 12 13 14 15 16 17 18 19 20 21 22 23 24
000
FTUS43 KDLH 200500
TAFDLH
TAF
KDLH 200520Z 2006/2106 32008KT P6SM SCT028 BKN040
     FM201000 33007KT P6SM BKN028
     FM201400 34009G13KT P6SM BKN022 OVC035
     FM201700 36008KT P6SM BKN040
     FM202300 04007KT P6SM SCT022 BKN035=

USA.gov is the U.S. government's official web portal to all federal, state and local government web resources and services.